Flight Track Log - Related Links

Times and Time Zones

All times are in EDT time to prevent confusion due to time zone crossing. See the TCF3494 flight status page for this flight to view local times or setup timezone preferences in your user account.

Time Position Orientation Groundspeed Altitude Reporting Facility
EDT Latitude Longitude Course Direction KTS MPH feet Rate Location/Type
Fri 07:32:04 PM 40.7667 -73.8000 299° West 181 208 2,400  Level New York TRACON
Fri 07:33:04 PM 40.8167 -73.7500 37° Northeast 225 259 5,100 2,450 Climbing New York TRACON
Fri 07:34:00 PM 40.9340 -74.2345 304° West  Level FlightAware Approximate
Fri 07:34:04 PM 40.8667 -73.8000 323° Northwest 257 296 7,300  Level New York TRACON
Fri 07:35:00 PM 40.9818 -74.3303 304° West  Level FlightAware Approximate
Fri 07:36:00 PM 41.0240 -74.4307 299° West  Level FlightAware Approximate
Fri 07:36:28 PM 40.9678 -73.9919 305° West 286 329 12,800  Level New York Center
Fri 07:37:00 PM 41.0659 -74.5314 299° West  Level FlightAware Approximate
Fri 07:37:28 PM 41.0192 -74.0933 304° West 293 337 15,000  Level New York Center
Fri 07:38:29 PM 41.0431 -74.2017 286° West 298 343 15,400 496 Climbing New York Center
Fri 07:39:29 PM 41.0667 -74.3211 285° West 330 380 16,000 298 Climbing New York Center
Fri 07:40:30 PM 41.0881 -74.4353 284° West 335 386 16,000 99 Level New York Center
Fri 07:41:30 PM 41.1097 -74.5439 285° West 314 361 16,200 1,008 Climbing New York Center
Fri 07:42:29 PM 41.1269 -74.6494 282° West 298 343 18,000 1,714 Climbing New York Center
Fri 07:43:29 PM 41.1553 -74.7364 293° West 298 343 19,600 1,261 Climbing New York Center
Fri 07:44:28 PM 41.2039 -74.8442 301° West 305 351 20,500 1,109 Climbing New York Center
Fri 07:45:28 PM 41.2497 -74.9600 298° West 338 389 21,800 1,350 Climbing New York Center
Fri 07:46:28 PM 41.2978 -75.0733 299° West 349 402 23,200 1,388 Climbing New York Center
Fri 07:47:29 PM 41.3478 -75.1872 300° West 356 410 24,600 1,328 Climbing New York Center
Fri 07:48:30 PM 41.3994 -75.3067 300° West 366 421 25,900 1,289 Climbing New York Center
Fri 07:49:30 PM 41.4511 -75.4264 300° West 366 421 27,200 1,388 Climbing New York Center
Fri 07:50:31 PM 41.4942 -75.5486 295° West 366 421 28,700 1,350 Climbing New York Center
Fri 07:51:30 PM 41.5306 -75.6758 291° West 361 415 29,900 1,282 Climbing New York Center
Fri 07:52:28 PM 41.5650 -75.8003 290° West 361 415 31,200 1,361 Climbing New York Center
Fri 07:53:29 PM 41.6067 -75.9422 291° West 367 422 32,600 1,240 Climbing New York Center
Fri 07:54:29 PM 41.6428 -76.0672 291° West 367 422 33,700 694 Climbing New York Center
Fri 07:55:30 PM 41.6789 -76.1922 291° West 367 422 34,000 151 Climbing New York Center
Fri 07:56:28 PM 41.7125 -76.3172 290° West 367 422 34,000  Level New York Center
Fri 07:57:30 PM 41.7483 -76.4453 291° West 367 422 34,000  Level New York Center
Fri 07:58:30 PM 41.7783 -76.5564 290° West 362 417 34,000  Level New York Center
Fri 08:00:21 PM 41.8481 -76.8086 290° West 362 417 34,000  Level Cleveland Center
Fri 08:01:21 PM 41.8833 -76.9375 290° West 362 417 34,000  Level Cleveland Center
Fri 08:02:21 PM 41.9186 -77.0614 291° West 362 417 34,000  Level Cleveland Center
Fri 08:03:21 PM 41.9514 -77.1850 290° West 362 417 34,000  Level Cleveland Center
Fri 08:04:21 PM 41.9842 -77.3092 290° West 362 417 34,000  Level Cleveland Center
Fri 08:05:21 PM 42.0189 -77.4303 291° West 362 417 34,000  Level Cleveland Center
Fri 08:06:21 PM 42.0514 -77.5572 289° West 362 417 34,000  Level Cleveland Center
Fri 08:07:21 PM 42.0842 -77.6872 289° West 362 417 34,000  Level Cleveland Center
Fri 08:08:21 PM 42.1183 -77.8117 290° West 362 417 34,000  Level Cleveland Center
Fri 08:09:21 PM 42.1506 -77.9364 289° West 362 417 34,000  Level Cleveland Center
Fri 08:10:21 PM 42.1847 -78.0639 290° West 362 417 34,000  Level Cleveland Center
Fri 08:11:21 PM 42.2186 -78.1917 290° West 362 417 34,000  Level Cleveland Center
Fri 08:12:21 PM 42.2458 -78.3056 288° West 362 417 34,000  Level Cleveland Center
Fri 08:13:21 PM 42.2797 -78.4278 291° West 362 417 34,000  Level Cleveland Center
Fri 08:14:21 PM 42.3131 -78.5558 289° West 362 417 34,000  Level Cleveland Center
Fri 08:15:21 PM 42.3444 -78.6842 288° West 362 417 34,000  Level Cleveland Center
Fri 08:16:21 PM 42.3758 -78.8097 289° West 362 417 34,000  Level Cleveland Center
Fri 08:17:21 PM 42.4092 -78.9494 288° West 362 417 34,000  Level Cleveland Center
Fri 08:18:21 PM 42.4422 -79.0808 289° West 362 417 34,000  Level Cleveland Center
Fri 08:19:21 PM 42.4750 -79.2067 289° West 362 417 34,000  Level Cleveland Center
Fri 08:20:21 PM 42.4972 -79.3244 284° West 362 417 34,000  Level Cleveland Center
Fri 08:21:21 PM 42.5006 -79.4653 272° West 362 417 34,000  Level Cleveland Center
Fri 08:22:21 PM 42.5103 -79.5975 276° West 362 417 34,000  Level Cleveland Center
Fri 08:23:21 PM 42.5133 -79.7297 272° West 368 423 34,000  Level Cleveland Center
Fri 08:24:21 PM 42.5247 -79.8675 276° West 368 423 34,000  Level Cleveland Center
Fri 08:25:21 PM 42.5233 -80.0169 269° West 368 423 34,000  Level Cleveland Center
Fri 08:26:21 PM 42.5281 -80.1494 273° West 362 417 34,000  Level Cleveland Center
Fri 08:27:21 PM 42.5347 -80.2844 274° West 367 422 34,000  Level Cleveland Center
Fri 08:28:21 PM 42.5433 -80.4169 275° West 361 415 34,000  Level Cleveland Center
Fri 08:29:21 PM 42.5478 -80.5494 273° West 361 415 34,000  Level Cleveland Center
Fri 08:30:21 PM 42.5519 -80.6847 272° West 361 415 34,000  Level Cleveland Center
Fri 08:31:21 PM 42.5581 -80.8031 274° West 369 425 34,000  Level Cleveland Center
Fri 08:32:21 PM 42.5617 -80.9356 272° West 363 418 34,000  Level Cleveland Center
Fri 08:33:21 PM 42.5675 -81.0653 274° West 358 412 34,000  Level Cleveland Center
Fri 08:34:21 PM 42.5711 -81.2006 272° West 358 412 34,000  Level Cleveland Center
Fri 08:35:21 PM 42.5767 -81.3331 273° West 364 419 34,000  Level Cleveland Center
Fri 08:36:21 PM 42.5839 -81.4631 274° West 359 413 34,000  Level Cleveland Center
Fri 08:37:21 PM 42.6081 -81.5903 285° West 349 402 34,000  Level Cleveland Center
Fri 08:38:21 PM 42.6297 -81.7233 283° West 349 402 34,000  Level Cleveland Center
Fri 08:39:21 PM 42.6533 -81.8592 283° West 349 402 34,000  Level Cleveland Center
Fri 08:40:21 PM 42.6767 -81.9894 284° West 354 407 34,000  Level Cleveland Center
Fri 08:41:21 PM 42.6981 -82.1172 283° West 354 407 34,000  Level Cleveland Center
Fri 08:42:21 PM 42.7211 -82.2478 284° West 354 407 34,000  Level Cleveland Center
Fri 08:43:21 PM 42.7422 -82.3756 283° West 354 407 34,000  Level Cleveland Center
Fri 08:44:21 PM 42.7525 -82.5058 276° West 354 407 34,000  Level Cleveland Center
Fri 08:45:21 PM 42.7608 -82.6361 275° West 354 407 34,000  Level Cleveland Center
Fri 08:46:21 PM 42.7647 -82.7664 272° West 349 402 34,000  Level Cleveland Center
Fri 08:47:21 PM 42.7706 -82.8883 274° West 349 402 34,000  Level Cleveland Center
Fri 08:48:21 PM 42.7761 -83.0186 273° West 349 402 34,000  Level Cleveland Center
Fri 08:49:21 PM 42.7839 -83.1519 275° West 349 402 34,000  Level Cleveland Center
Fri 08:50:21 PM 42.7911 -83.2853 274° West 349 402 34,000  Level Cleveland Center
Fri 08:51:21 PM 42.7942 -83.4156 272° West 349 402 34,000  Level Cleveland Center
Fri 08:52:21 PM 42.8014 -83.5461 274° West 349 402 34,000  Level Cleveland Center
Fri 08:53:21 PM 42.8061 -83.6822 273° West 349 402 34,000 -350 Level Cleveland Center
Fri 08:54:21 PM 42.8089 -83.8125 272° West 349 402 33,300 -750 Descending Cleveland Center
Fri 08:55:21 PM 42.8156 -83.9431 274° West 349 402 32,500 -459 Descending Cleveland Center
Fri 08:57:11 PM 42.8264 -84.1886 274° West 354 407 32,000 -174 Descending Chicago Center
Fri 08:58:13 PM 42.8311 -84.3225 273° West 353 406 32,000  Level Chicago Center
Fri 08:59:15 PM 42.8344 -84.4572 272° West 357 411 32,000  Level Chicago Center
Fri 09:00:17 PM 42.8389 -84.5911 273° West 354 407 32,000  Level Chicago Center
Fri 09:01:19 PM 42.8431 -84.7544 272° West 359 413 32,000  Level Chicago Center
Fri 09:02:21 PM 42.8469 -84.8900 272° West 360 414 32,000  Level Chicago Center
Fri 09:03:23 PM 42.8383 -85.0261 265° West 360 414 32,000  Level Chicago Center
Fri 09:04:25 PM 42.8231 -85.1619 261° West 363 418 32,000  Level Chicago Center
Fri 09:05:27 PM 42.8081 -85.3036 262° West 372 428 32,000 -194 Level Chicago Center
Fri 09:06:29 PM 42.7917 -85.4506 261° West 385 443 31,600 -1,258 Descending Chicago Center
Fri 09:07:31 PM 42.7681 -85.6011 258° West 402 463 29,400 -2,371 Descending Chicago Center
Fri 09:08:33 PM 42.7353 -85.7869 257° West 418 481 26,700 -2,323 Descending Chicago Center
Fri 09:09:35 PM 42.7081 -85.9344 256° West 403 464 24,600 -2,032 Descending Chicago Center
Fri 09:10:37 PM 42.6817 -86.0775 256° West 392 451 22,500 -1,968 Descending Chicago Center
Fri 09:11:40 PM 42.6564 -86.2164 256° West 380 437 20,500 -1,200 Descending Chicago Center
Fri 09:12:42 PM 42.6303 -86.3522 255° West 374 430 20,000 -242 Descending Chicago Center
Fri 09:13:44 PM 42.6036 -86.4917 255° West 378 435 20,000 -968 Level Chicago Center
Fri 09:14:46 PM 42.5778 -86.6292 256° West 376 433 18,000 -1,984 Descending Chicago Center
Fri 09:15:48 PM 42.5464 -86.7886 255° West 368 423 15,900 -2,129 Descending Chicago Center
Fri 09:16:50 PM 42.5111 -86.9122 249° West 359 413 13,600 -2,244 Descending Chicago Center
Fri 09:17:51 PM 42.4769 -87.0369 250° West 355 409 11,300 -1,756 Descending Chicago Center
Fri 09:18:53 PM 42.4442 -87.1531 249° West 336 387 10,000 -919 Descending Chicago Center
Fri 09:19:55 PM 42.4172 -87.2461 249° West 275 316 9,400 -1,016 Descending Chicago Center
Fri 09:20:57 PM 42.3906 -87.3347 248° West 259 298 7,900 -1,161 Descending Chicago Center
Fri 09:21:59 PM 42.3622 -87.4347 249° West 241 277 7,000 -435 Descending Chicago Center
Fri 09:23:01 PM 42.3317 -87.5186 244° Southwest 248 285 7,000  Level Chicago Center
Fri 09:24:03 PM 42.2828 -87.5806 223° Southwest 242 278 7,000 -97 Level Chicago Center
Fri 09:25:05 PM 42.2325 -87.6350 219° Southwest 237 273 6,800 -634 Descending Chicago Center
Fri 09:26:06 PM 42.1892 -87.6842 220° Southwest 214 246 5,700 -1,024 Descending Chicago Center
Fri 09:27:08 PM 42.1514 -87.7264 220° Southwest 187 215 4,700 -968 Descending Chicago Center
Fri 09:28:10 PM 42.1128 -87.7703 220° Southwest 161 185 3,700 -975 Descending Chicago Center
Fri 09:28:28 PM 42.1000 -87.7833 217° Southwest 153 176 3,400 -1,000 Descending Chicago TRACON

Login

Don't have an account? Register now (free) for customized features, flight alerts, and more!